sensor_id;sensor_type;location;lat;lon;timestamp;temperature;humidity
78184;DHT22;67442;44.570;18.610;2023-04-03T00:02:14;23.00;59.40
78184;DHT22;67442;44.570;18.610;2023-04-03T00:04:41;23.00;59.40
78184;DHT22;67442;44.570;18.610;2023-04-03T00:07:11;23.00;59.40
78184;DHT22;67442;44.570;18.610;2023-04-03T00:09:38;23.00;59.40
78184;DHT22;67442;44.570;18.610;2023-04-03T00:12:08;23.00;59.40
78184;DHT22;67442;44.570;18.610;2023-04-03T00:14:35;23.00;59.40
78184;DHT22;67442;44.570;18.610;2023-04-03T00:17:05;23.00;59.40
78184;DHT22;67442;44.570;18.610;2023-04-03T00:19:35;23.00;59.40
78184;DHT22;67442;44.570;18.610;2023-04-03T00:22:04;23.00;59.40
78184;DHT22;67442;44.570;18.610;2023-04-03T00:24:31;23.00;59.40
78184;DHT22;67442;44.570;18.610;2023-04-03T00:26:58;23.00;59.50
78184;DHT22;67442;44.570;18.610;2023-04-03T00:29:28;23.00;59.50
78184;DHT22;67442;44.570;18.610;2023-04-03T00:31:56;23.00;59.50
78184;DHT22;67442;44.570;18.610;2023-04-03T00:34:22;23.00;59.40
78184;DHT22;67442;44.570;18.610;2023-04-03T00:36:49;23.00;59.40
78184;DHT22;67442;44.570;18.610;2023-04-03T00:39:17;23.00;59.40
78184;DHT22;67442;44.570;18.610;2023-04-03T00:41:43;23.00;59.40
78184;DHT22;67442;44.570;18.610;2023-04-03T00:47:03;23.00;59.40
78184;DHT22;67442;44.570;18.610;2023-04-03T00:49:30;23.00;59.40
78184;DHT22;67442;44.570;18.610;2023-04-03T00:52:00;23.00;59.40
78184;DHT22;67442;44.570;18.610;2023-04-03T00:54:26;23.00;59.40
78184;DHT22;67442;44.570;18.610;2023-04-03T00:56:54;23.00;59.50
78184;DHT22;67442;44.570;18.610;2023-04-03T00:59:23;23.00;59.50
78184;DHT22;67442;44.570;18.610;2023-04-03T01:01:55;23.00;59.50
78184;DHT22;67442;44.570;18.610;2023-04-03T01:04:39;23.00;59.50
78184;DHT22;67442;44.570;18.610;2023-04-03T01:07:08;23.00;59.50
78184;DHT22;67442;44.570;18.610;2023-04-03T01:09:35;23.00;59.50
78184;DHT22;67442;44.570;18.610;2023-04-03T01:12:18;23.00;59.50
78184;DHT22;67442;44.570;18.610;2023-04-03T01:15:06;23.00;59.50
78184;DHT22;67442;44.570;18.610;2023-04-03T01:17:37;22.90;59.40
78184;DHT22;67442;44.570;18.610;2023-04-03T01:25:18;23.00;59.50
78184;DHT22;67442;44.570;18.610;2023-04-03T01:27:44;23.00;59.60
78184;DHT22;67442;44.570;18.610;2023-04-03T01:30:11;23.00;59.60
78184;DHT22;67442;44.570;18.610;2023-04-03T01:32:44;23.00;59.60
78184;DHT22;67442;44.570;18.610;2023-04-03T01:35:10;23.00;59.70
78184;DHT22;67442;44.570;18.610;2023-04-03T01:37:36;23.00;59.70
78184;DHT22;67442;44.570;18.610;2023-04-03T01:40:04;23.00;59.70
78184;DHT22;67442;44.570;18.610;2023-04-03T01:42:32;23.00;59.70
78184;DHT22;67442;44.570;18.610;2023-04-03T01:44:59;23.00;59.70
78184;DHT22;67442;44.570;18.610;2023-04-03T01:47:25;23.00;59.60
78184;DHT22;67442;44.570;18.610;2023-04-03T01:49:52;23.00;59.70
78184;DHT22;67442;44.570;18.610;2023-04-03T01:52:18;23.00;59.60
78184;DHT22;67442;44.570;18.610;2023-04-03T01:54:45;23.00;59.60
78184;DHT22;67442;44.570;18.610;2023-04-03T01:57:16;22.90;59.60
78184;DHT22;67442;44.570;18.610;2023-04-03T01:59:42;23.00;59.60
78184;DHT22;67442;44.570;18.610;2023-04-03T02:02:09;23.00;59.70
78184;DHT22;67442;44.570;18.610;2023-04-03T02:04:37;23.00;59.60
78184;DHT22;67442;44.570;18.610;2023-04-03T02:07:04;23.00;59.70
78184;DHT22;67442;44.570;18.610;2023-04-03T02:09:31;23.00;59.70
78184;DHT22;67442;44.570;18.610;2023-04-03T02:11:58;23.00;59.80
78184;DHT22;67442;44.570;18.610;2023-04-03T02:14:24;23.00;59.80
78184;DHT22;67442;44.570;18.610;2023-04-03T02:16:55;23.00;59.80
78184;DHT22;67442;44.570;18.610;2023-04-03T02:19:22;23.00;59.80
78184;DHT22;67442;44.570;18.610;2023-04-03T02:21:49;23.00;59.80
78184;DHT22;67442;44.570;18.610;2023-04-03T02:24:16;23.00;59.80
78184;DHT22;67442;44.570;18.610;2023-04-03T02:26:42;23.00;59.70
78184;DHT22;67442;44.570;18.610;2023-04-03T02:29:09;23.00;59.80
78184;DHT22;67442;44.570;18.610;2023-04-03T02:31:39;23.00;59.80
78184;DHT22;67442;44.570;18.610;2023-04-03T02:34:06;23.00;59.80
78184;DHT22;67442;44.570;18.610;2023-04-03T02:36:36;23.00;59.80
78184;DHT22;67442;44.570;18.610;2023-04-03T02:39:03;23.00;59.80
78184;DHT22;67442;44.570;18.610;2023-04-03T02:41:29;23.00;59.80
78184;DHT22;67442;44.570;18.610;2023-04-03T02:44:04;23.00;59.80
78184;DHT22;67442;44.570;18.610;2023-04-03T02:46:51;22.90;59.80
78184;DHT22;67442;44.570;18.610;2023-04-03T02:49:18;23.00;59.80
78184;DHT22;67442;44.570;18.610;2023-04-03T02:51:44;23.00;59.80
78184;DHT22;67442;44.570;18.610;2023-04-03T02:54:11;23.00;59.80
78184;DHT22;67442;44.570;18.610;2023-04-03T02:56:38;23.00;59.80
78184;DHT22;67442;44.570;18.610;2023-04-03T02:59:05;23.00;59.80
78184;DHT22;67442;44.570;18.610;2023-04-03T03:01:31;23.00;59.70
78184;DHT22;67442;44.570;18.610;2023-04-03T03:03:58;23.00;59.80
78184;DHT22;67442;44.570;18.610;2023-04-03T03:06:26;23.00;59.70
78184;DHT22;67442;44.570;18.610;2023-04-03T03:08:52;23.00;59.70
78184;DHT22;67442;44.570;18.610;2023-04-03T03:11:19;23.00;59.80
78184;DHT22;67442;44.570;18.610;2023-04-03T03:13:45;23.00;59.80
78184;DHT22;67442;44.570;18.610;2023-04-03T03:16:15;23.00;59.80
78184;DHT22;67442;44.570;18.610;2023-04-03T03:18:42;22.90;59.70
78184;DHT22;67442;44.570;18.610;2023-04-03T03:21:08;22.90;59.70
78184;DHT22;67442;44.570;18.610;2023-04-03T03:23:35;22.90;59.70
78184;DHT22;67442;44.570;18.610;2023-04-03T03:26:03;22.90;59.70
78184;DHT22;67442;44.570;18.610;2023-04-03T03:28:29;22.90;59.70
78184;DHT22;67442;44.570;18.610;2023-04-03T03:30:56;22.90;59.70
78184;DHT22;67442;44.570;18.610;2023-04-03T03:33:27;22.90;59.70
78184;DHT22;67442;44.570;18.610;2023-04-03T03:35:54;22.90;59.70
78184;DHT22;67442;44.570;18.610;2023-04-03T03:38:21;22.90;59.70
78184;DHT22;67442;44.570;18.610;2023-04-03T03:40:52;22.90;59.70
78184;DHT22;67442;44.570;18.610;2023-04-03T03:43:19;22.90;59.70
78184;DHT22;67442;44.570;18.610;2023-04-03T03:45:49;22.90;59.80
78184;DHT22;67442;44.570;18.610;2023-04-03T03:48:16;22.90;59.70
78184;DHT22;67442;44.570;18.610;2023-04-03T03:50:43;23.00;59.80
78184;DHT22;67442;44.570;18.610;2023-04-03T03:53:09;22.90;59.80
78184;DHT22;67442;44.570;18.610;2023-04-03T03:55:40;23.00;59.90
78184;DHT22;67442;44.570;18.610;2023-04-03T03:58:06;23.00;59.90
78184;DHT22;67442;44.570;18.610;2023-04-03T04:00:32;22.90;59.80
78184;DHT22;67442;44.570;18.610;2023-04-03T04:02:59;22.90;59.80
78184;DHT22;67442;44.570;18.610;2023-04-03T04:05:26;22.90;59.80
78184;DHT22;67442;44.570;18.610;2023-04-03T04:07:53;23.00;59.90
78184;DHT22;67442;44.570;18.610;2023-04-03T04:10:24;22.90;59.90
78184;DHT22;67442;44.570;18.610;2023-04-03T04:12:50;22.90;59.90
78184;DHT22;67442;44.570;18.610;2023-04-03T04:15:17;23.00;59.90
78184;DHT22;67442;44.570;18.610;2023-04-03T04:17:44;23.00;59.90
78184;DHT22;67442;44.570;18.610;2023-04-03T04:20:11;23.00;60.00
78184;DHT22;67442;44.570;18.610;2023-04-03T04:22:38;23.00;60.00
78184;DHT22;67442;44.570;18.610;2023-04-03T04:25:05;23.00;59.90
78184;DHT22;67442;44.570;18.610;2023-04-03T04:27:32;23.00;60.00
78184;DHT22;67442;44.570;18.610;2023-04-03T04:29:58;23.00;60.00
78184;DHT22;67442;44.570;18.610;2023-04-03T04:32:29;23.00;60.00
78184;DHT22;67442;44.570;18.610;2023-04-03T04:34:56;23.00;59.90
78184;DHT22;67442;44.570;18.610;2023-04-03T04:37:26;23.00;60.00
78184;DHT22;67442;44.570;18.610;2023-04-03T04:39:53;23.00;60.00
78184;DHT22;67442;44.570;18.610;2023-04-03T04:42:23;23.00;60.00
78184;DHT22;67442;44.570;18.610;2023-04-03T04:44:50;23.00;60.00
78184;DHT22;67442;44.570;18.610;2023-04-03T04:47:17;22.90;60.80
78184;DHT22;67442;44.570;18.610;2023-04-03T04:49:43;23.00;60.10
78184;DHT22;67442;44.570;18.610;2023-04-03T04:52:15;22.90;60.10
78184;DHT22;67442;44.570;18.610;2023-04-03T04:54:42;22.90;60.20
78184;DHT22;67442;44.570;18.610;2023-04-03T04:57:09;22.90;60.30
78184;DHT22;67442;44.570;18.610;2023-04-03T04:59:36;22.90;60.30
78184;DHT22;67442;44.570;18.610;2023-04-03T05:02:03;22.90;60.40
78184;DHT22;67442;44.570;18.610;2023-04-03T05:04:30;22.90;60.40
78184;DHT22;67442;44.570;18.610;2023-04-03T05:06:56;22.90;60.40
78184;DHT22;67442;44.570;18.610;2023-04-03T05:09:23;22.90;60.30
78184;DHT22;67442;44.570;18.610;2023-04-03T05:11:50;22.90;60.30
78184;DHT22;67442;44.570;18.610;2023-04-03T05:14:20;22.90;61.00
78184;DHT22;67442;44.570;18.610;2023-04-03T05:16:50;22.90;60.20
78184;DHT22;67442;44.570;18.610;2023-04-03T05:19:22;22.90;60.10
78184;DHT22;67442;44.570;18.610;2023-04-03T05:21:48;22.90;60.10
78184;DHT22;67442;44.570;18.610;2023-04-03T05:24:18;22.90;60.00
78184;DHT22;67442;44.570;18.610;2023-04-03T05:26:45;22.80;59.90
78184;DHT22;67442;44.570;18.610;2023-04-03T05:29:12;22.80;59.80
78184;DHT22;67442;44.570;18.610;2023-04-03T05:31:39;22.80;59.80
78184;DHT22;67442;44.570;18.610;2023-04-03T05:34:09;22.80;59.70
78184;DHT22;67442;44.570;18.610;2023-04-03T05:36:36;22.80;59.70
78184;DHT22;67442;44.570;18.610;2023-04-03T05:39:02;22.80;59.60
78184;DHT22;67442;44.570;18.610;2023-04-03T05:41:29;22.80;59.60
78184;DHT22;67442;44.570;18.610;2023-04-03T05:44:00;22.80;59.50
78184;DHT22;67442;44.570;18.610;2023-04-03T05:46:27;22.80;59.50
78184;DHT22;67442;44.570;18.610;2023-04-03T05:48:53;22.80;59.40
78184;DHT22;67442;44.570;18.610;2023-04-03T05:51:24;22.80;59.40
78184;DHT22;67442;44.570;18.610;2023-04-03T05:53:52;22.70;59.30
78184;DHT22;67442;44.570;18.610;2023-04-03T05:56:20;22.70;59.20
78184;DHT22;67442;44.570;18.610;2023-04-03T05:58:47;22.70;59.10
78184;DHT22;67442;44.570;18.610;2023-04-03T06:01:14;22.70;59.10
78184;DHT22;67442;44.570;18.610;2023-04-03T06:03:41;22.70;59.00
78184;DHT22;67442;44.570;18.610;2023-04-03T06:06:10;22.70;58.90
78184;DHT22;67442;44.570;18.610;2023-04-03T06:08:38;22.70;58.90
78184;DHT22;67442;44.570;18.610;2023-04-03T06:11:05;22.70;58.80
78184;DHT22;67442;44.570;18.610;2023-04-03T06:13:31;22.70;58.80
78184;DHT22;67442;44.570;18.610;2023-04-03T06:16:03;22.70;58.80
78184;DHT22;67442;44.570;18.610;2023-04-03T06:18:31;22.70;58.70
78184;DHT22;67442;44.570;18.610;2023-04-03T06:20:58;22.70;58.70
78184;DHT22;67442;44.570;18.610;2023-04-03T06:23:24;22.70;58.70
78184;DHT22;67442;44.570;18.610;2023-04-03T06:25:51;22.70;58.60
78184;DHT22;67442;44.570;18.610;2023-04-03T06:28:18;22.70;58.60
78184;DHT22;67442;44.570;18.610;2023-04-03T06:30:45;22.60;58.50
78184;DHT22;67442;44.570;18.610;2023-04-03T06:33:12;22.60;58.50
78184;DHT22;67442;44.570;18.610;2023-04-03T06:35:39;22.60;58.50
78184;DHT22;67442;44.570;18.610;2023-04-03T06:38:06;22.60;58.50
78184;DHT22;67442;44.570;18.610;2023-04-03T06:40:35;22.60;58.50
78184;DHT22;67442;44.570;18.610;2023-04-03T06:43:01;22.60;59.10
78184;DHT22;67442;44.570;18.610;2023-04-03T06:45:28;22.60;58.50
78184;DHT22;67442;44.570;18.610;2023-04-03T06:47:54;22.60;58.50
78184;DHT22;67442;44.570;18.610;2023-04-03T06:50:21;22.60;58.50
78184;DHT22;67442;44.570;18.610;2023-04-03T06:52:48;22.60;58.50
78184;DHT22;67442;44.570;18.610;2023-04-03T06:55:14;22.60;58.50
78184;DHT22;67442;44.570;18.610;2023-04-03T06:57:41;22.60;58.50
78184;DHT22;67442;44.570;18.610;2023-04-03T07:00:08;22.60;58.40
78184;DHT22;67442;44.570;18.610;2023-04-03T07:02:36;22.60;58.40
78184;DHT22;67442;44.570;18.610;2023-04-03T07:05:06;22.60;58.40
78184;DHT22;67442;44.570;18.610;2023-04-03T07:07:34;22.60;58.40
78184;DHT22;67442;44.570;18.610;2023-04-03T07:10:01;22.60;58.50
78184;DHT22;67442;44.570;18.610;2023-04-03T07:12:28;22.60;58.40
78184;DHT22;67442;44.570;18.610;2023-04-03T07:14:55;22.60;58.40
78184;DHT22;67442;44.570;18.610;2023-04-03T07:17:22;22.50;58.30
78184;DHT22;67442;44.570;18.610;2023-04-03T07:19:49;22.60;58.40
78184;DHT22;67442;44.570;18.610;2023-04-03T07:22:15;22.60;58.30
78184;DHT22;67442;44.570;18.610;2023-04-03T07:24:42;22.50;58.30
78184;DHT22;67442;44.570;18.610;2023-04-03T07:27:09;22.50;58.30
78184;DHT22;67442;44.570;18.610;2023-04-03T07:29:36;22.50;58.30
78184;DHT22;67442;44.570;18.610;2023-04-03T07:32:03;22.50;58.30
78184;DHT22;67442;44.570;18.610;2023-04-03T07:34:30;22.50;58.20
78184;DHT22;67442;44.570;18.610;2023-04-03T07:37:00;22.50;58.20
78184;DHT22;67442;44.570;18.610;2023-04-03T07:39:31;22.50;58.20
78184;DHT22;67442;44.570;18.610;2023-04-03T07:42:01;22.50;58.20
78184;DHT22;67442;44.570;18.610;2023-04-03T07:44:27;22.50;58.20
78184;DHT22;67442;44.570;18.610;2023-04-03T07:46:54;22.50;58.20
78184;DHT22;67442;44.570;18.610;2023-04-03T07:49:25;22.50;58.20
78184;DHT22;67442;44.570;18.610;2023-04-03T07:51:51;22.50;58.10
78184;DHT22;67442;44.570;18.610;2023-04-03T07:54:18;22.50;58.10
78184;DHT22;67442;44.570;18.610;2023-04-03T07:56:45;22.50;58.00
78184;DHT22;67442;44.570;18.610;2023-04-03T07:59:12;22.50;58.10
78184;DHT22;67442;44.570;18.610;2023-04-03T08:01:39;22.50;58.00
78184;DHT22;67442;44.570;18.610;2023-04-03T08:04:05;22.50;58.00
78184;DHT22;67442;44.570;18.610;2023-04-03T08:06:32;22.50;58.00
78184;DHT22;67442;44.570;18.610;2023-04-03T08:09:02;22.50;58.00
78184;DHT22;67442;44.570;18.610;2023-04-03T08:11:29;22.50;58.00
78184;DHT22;67442;44.570;18.610;2023-04-03T08:13:56;22.50;57.90
78184;DHT22;67442;44.570;18.610;2023-04-03T08:16:23;22.50;57.90
78184;DHT22;67442;44.570;18.610;2023-04-03T08:18:52;22.50;57.90
78184;DHT22;67442;44.570;18.610;2023-04-03T08:21:19;22.50;57.90
78184;DHT22;67442;44.570;18.610;2023-04-03T08:23:47;22.50;57.90
78184;DHT22;67442;44.570;18.610;2023-04-03T08:26:14;22.50;57.90
78184;DHT22;67442;44.570;18.610;2023-04-03T08:28:41;22.40;57.80
78184;DHT22;67442;44.570;18.610;2023-04-03T08:31:09;22.40;57.80
78184;DHT22;67442;44.570;18.610;2023-04-03T08:33:37;22.40;57.80
78184;DHT22;67442;44.570;18.610;2023-04-03T08:36:04;22.40;57.80
78184;DHT22;67442;44.570;18.610;2023-04-03T08:38:31;22.40;57.80
78184;DHT22;67442;44.570;18.610;2023-04-03T08:45:57;22.40;57.80
78184;DHT22;67442;44.570;18.610;2023-04-03T08:48:36;22.40;57.80
78184;DHT22;67442;44.570;18.610;2023-04-03T08:51:10;22.40;57.80
78184;DHT22;67442;44.570;18.610;2023-04-03T08:53:42;22.40;57.80
78184;DHT22;67442;44.570;18.610;2023-04-03T08:56:13;22.40;57.80
78184;DHT22;67442;44.570;18.610;2023-04-03T08:58:42;22.40;57.70
78184;DHT22;67442;44.570;18.610;2023-04-03T09:03:41;22.40;57.70
78184;DHT22;67442;44.570;18.610;2023-04-03T09:08:45;22.40;57.70
78184;DHT22;67442;44.570;18.610;2023-04-03T09:11:27;22.40;57.70
78184;DHT22;67442;44.570;18.610;2023-04-03T09:21:50;22.40;57.70
78184;DHT22;67442;44.570;18.610;2023-04-03T09:24:20;22.30;57.70
78184;DHT22;67442;44.570;18.610;2023-04-03T09:27:05;22.30;57.60
78184;DHT22;67442;44.570;18.610;2023-04-03T09:29:48;22.40;57.70
78184;DHT22;67442;44.570;18.610;2023-04-03T09:32:30;22.30;57.60
78184;DHT22;67442;44.570;18.610;2023-04-03T09:34:59;22.30;57.60
78184;DHT22;67442;44.570;18.610;2023-04-03T09:37:44;22.30;57.60
78184;DHT22;67442;44.570;18.610;2023-04-03T09:40:32;22.30;57.60
78184;DHT22;67442;44.570;18.610;2023-04-03T09:42:58;22.30;57.60
78184;DHT22;67442;44.570;18.610;2023-04-03T09:45:34;22.30;57.50
78184;DHT22;67442;44.570;18.610;2023-04-03T09:50:52;22.30;57.50
78184;DHT22;67442;44.570;18.610;2023-04-03T09:55:53;22.30;57.50
78184;DHT22;67442;44.570;18.610;2023-04-03T09:58:31;22.30;57.50
78184;DHT22;67442;44.570;18.610;2023-04-03T10:01:01;22.30;57.50
78184;DHT22;67442;44.570;18.610;2023-04-03T10:03:33;22.30;57.50
78184;DHT22;67442;44.570;18.610;2023-04-03T10:06:01;22.30;57.50
78184;DHT22;67442;44.570;18.610;2023-04-03T10:08:32;22.30;57.40
78184;DHT22;67442;44.570;18.610;2023-04-03T10:11:05;22.30;57.50
78184;DHT22;67442;44.570;18.610;2023-04-03T10:13:37;22.30;57.50
78184;DHT22;67442;44.570;18.610;2023-04-03T10:16:14;22.30;57.40
78184;DHT22;67442;44.570;18.610;2023-04-03T10:18:44;22.30;57.40
78184;DHT22;67442;44.570;18.610;2023-04-03T10:21:33;22.30;57.40
78184;DHT22;67442;44.570;18.610;2023-04-03T10:52:47;22.30;58.10
78184;DHT22;67442;44.570;18.610;2023-04-03T10:55:37;22.20;57.40
78184;DHT22;67442;44.570;18.610;2023-04-03T10:58:10;22.20;57.40
78184;DHT22;67442;44.570;18.610;2023-04-03T11:00:45;22.20;57.40
78184;DHT22;67442;44.570;18.610;2023-04-03T11:05:48;22.20;57.40
78184;DHT22;67442;44.570;18.610;2023-04-03T11:08:29;22.20;57.40
78184;DHT22;67442;44.570;18.610;2023-04-03T11:11:04;22.20;57.40
78184;DHT22;67442;44.570;18.610;2023-04-03T11:16:00;22.20;57.30
78184;DHT22;67442;44.570;18.610;2023-04-03T11:21:03;22.20;57.30
78184;DHT22;67442;44.570;18.610;2023-04-03T11:23:33;22.20;57.30
78184;DHT22;67442;44.570;18.610;2023-04-03T11:26:12;22.20;57.30
78184;DHT22;67442;44.570;18.610;2023-04-03T11:29:00;22.20;57.30
78184;DHT22;67442;44.570;18.610;2023-04-03T11:36:41;22.20;57.30
78184;DHT22;67442;44.570;18.610;2023-04-03T11:39:16;22.20;57.20
78184;DHT22;67442;44.570;18.610;2023-04-03T11:41:44;22.20;57.20
78184;DHT22;67442;44.570;18.610;2023-04-03T11:44:30;22.20;57.20
78184;DHT22;67442;44.570;18.610;2023-04-03T11:47:02;22.20;57.30
78184;DHT22;67442;44.570;18.610;2023-04-03T11:52:13;22.20;57.20
78184;DHT22;67442;44.570;18.610;2023-04-03T11:54:59;22.20;57.90
78184;DHT22;67442;44.570;18.610;2023-04-03T11:57:46;22.20;57.20
78184;DHT22;67442;44.570;18.610;2023-04-03T12:02:58;22.10;57.20
78184;DHT22;67442;44.570;18.610;2023-04-03T12:05:29;22.20;57.20
78184;DHT22;67442;44.570;18.610;2023-04-03T12:10:40;22.20;57.20
78184;DHT22;67442;44.570;18.610;2023-04-03T12:13:13;22.10;57.80
78184;DHT22;67442;44.570;18.610;2023-04-03T12:15:51;22.10;57.20
78184;DHT22;67442;44.570;18.610;2023-04-03T12:21:04;22.10;57.20
78184;DHT22;67442;44.570;18.610;2023-04-03T12:23:34;22.10;57.20
78184;DHT22;67442;44.570;18.610;2023-04-03T12:26:03;22.20;57.20
78184;DHT22;67442;44.570;18.610;2023-04-03T12:28:37;22.10;57.20
78184;DHT22;67442;44.570;18.610;2023-04-03T12:31:04;22.10;57.20
78184;DHT22;67442;44.570;18.610;2023-04-03T12:36:26;22.10;57.20
78184;DHT22;67442;44.570;18.610;2023-04-03T12:44:46;22.10;57.20
78184;DHT22;67442;44.570;18.610;2023-04-03T12:47:24;22.10;57.20
78184;DHT22;67442;44.570;18.610;2023-04-03T12:49:52;22.10;57.20
78184;DHT22;67442;44.570;18.610;2023-04-03T12:52:21;22.10;57.20
78184;DHT22;67442;44.570;18.610;2023-04-03T12:54:50;22.10;57.20
78184;DHT22;67442;44.570;18.610;2023-04-03T12:59:43;22.10;57.20
78184;DHT22;67442;44.570;18.610;2023-04-03T13:02:18;22.10;57.10
78184;DHT22;67442;44.570;18.610;2023-04-03T13:04:50;22.10;57.20
78184;DHT22;67442;44.570;18.610;2023-04-03T13:07:21;22.10;57.10
78184;DHT22;67442;44.570;18.610;2023-04-03T13:09:55;22.10;57.20
78184;DHT22;67442;44.570;18.610;2023-04-03T13:12:21;22.10;57.20
78184;DHT22;67442;44.570;18.610;2023-04-03T13:14:55;22.10;57.10
78184;DHT22;67442;44.570;18.610;2023-04-03T13:17:41;22.10;57.10
78184;DHT22;67442;44.570;18.610;2023-04-03T13:20:14;22.10;57.10
78184;DHT22;67442;44.570;18.610;2023-04-03T13:22:48;22.10;57.10
78184;DHT22;67442;44.570;18.610;2023-04-03T13:25:16;22.10;57.10
78184;DHT22;67442;44.570;18.610;2023-04-03T13:27:48;22.10;57.80
78184;DHT22;67442;44.570;18.610;2023-04-03T13:33:20;22.10;57.10
78184;DHT22;67442;44.570;18.610;2023-04-03T13:35:47;22.10;57.10
78184;DHT22;67442;44.570;18.610;2023-04-03T13:40:47;22.00;57.00
78184;DHT22;67442;44.570;18.610;2023-04-03T13:43:17;22.00;57.00
78184;DHT22;67442;44.570;18.610;2023-04-03T13:45:58;22.00;57.00
78184;DHT22;67442;44.570;18.610;2023-04-03T13:48:34;22.00;57.00
78184;DHT22;67442;44.570;18.610;2023-04-03T13:51:04;22.10;57.10
78184;DHT22;67442;44.570;18.610;2023-04-03T13:53:31;22.00;57.00
78184;DHT22;67442;44.570;18.610;2023-04-03T13:56:08;22.00;57.00
78184;DHT22;67442;44.570;18.610;2023-04-03T13:58:36;22.00;57.00
78184;DHT22;67442;44.570;18.610;2023-04-03T14:03:42;22.00;57.00
78184;DHT22;67442;44.570;18.610;2023-04-03T14:06:17;22.00;57.00
78184;DHT22;67442;44.570;18.610;2023-04-03T14:08:45;22.00;57.00
78184;DHT22;67442;44.570;18.610;2023-04-03T14:11:16;22.00;57.00
78184;DHT22;67442;44.570;18.610;2023-04-03T14:13:44;22.00;57.00
78184;DHT22;67442;44.570;18.610;2023-04-03T14:16:22;22.00;57.00
78184;DHT22;67442;44.570;18.610;2023-04-03T14:18:49;22.00;57.00
78184;DHT22;67442;44.570;18.610;2023-04-03T14:21:18;22.00;57.00
78184;DHT22;67442;44.570;18.610;2023-04-03T14:23:44;22.00;57.00
78184;DHT22;67442;44.570;18.610;2023-04-03T14:26:13;22.00;57.00
78184;DHT22;67442;44.570;18.610;2023-04-03T14:28:42;22.00;57.70
78184;DHT22;67442;44.570;18.610;2023-04-03T14:31:09;22.00;57.00
78184;DHT22;67442;44.570;18.610;2023-04-03T14:33:36;22.00;57.00
78184;DHT22;67442;44.570;18.610;2023-04-03T14:38:38;22.00;57.00
78184;DHT22;67442;44.570;18.610;2023-04-03T14:41:04;22.00;57.00
78184;DHT22;67442;44.570;18.610;2023-04-03T14:43:31;22.00;57.00
78184;DHT22;67442;44.570;18.610;2023-04-03T14:46:01;22.00;57.00
78184;DHT22;67442;44.570;18.610;2023-04-03T14:48:27;22.00;57.00
78184;DHT22;67442;44.570;18.610;2023-04-03T14:50:54;22.00;57.00
78184;DHT22;67442;44.570;18.610;2023-04-03T14:53:21;21.90;57.00
78184;DHT22;67442;44.570;18.610;2023-04-03T14:55:51;22.00;57.00
78184;DHT22;67442;44.570;18.610;2023-04-03T14:58:19;21.90;57.00
78184;DHT22;67442;44.570;18.610;2023-04-03T15:00:50;22.00;57.00
78184;DHT22;67442;44.570;18.610;2023-04-03T15:03:17;21.90;57.00
78184;DHT22;67442;44.570;18.610;2023-04-03T15:05:44;21.90;57.00
78184;DHT22;67442;44.570;18.610;2023-04-03T15:08:21;21.90;57.00
78184;DHT22;67442;44.570;18.610;2023-04-03T15:10:48;21.90;57.00
78184;DHT22;67442;44.570;18.610;2023-04-03T15:13:14;21.90;57.00
78184;DHT22;67442;44.570;18.610;2023-04-03T15:15:44;21.90;57.00
78184;DHT22;67442;44.570;18.610;2023-04-03T15:18:16;21.90;57.00
78184;DHT22;67442;44.570;18.610;2023-04-03T15:20:43;22.00;57.10
78184;DHT22;67442;44.570;18.610;2023-04-03T15:23:13;22.00;57.10
78184;DHT22;67442;44.570;18.610;2023-04-03T15:25:45;22.00;57.10
78184;DHT22;67442;44.570;18.610;2023-04-03T15:28:19;21.90;57.10
78184;DHT22;67442;44.570;18.610;2023-04-03T15:30:51;22.00;57.20
78184;DHT22;67442;44.570;18.610;2023-04-03T15:33:18;22.00;57.20
78184;DHT22;67442;44.570;18.610;2023-04-03T15:35:45;22.00;57.30
78184;DHT22;67442;44.570;18.610;2023-04-03T15:38:12;22.00;57.30
78184;DHT22;67442;44.570;18.610;2023-04-03T15:40:38;22.00;57.30
78184;DHT22;67442;44.570;18.610;2023-04-03T15:43:05;22.00;57.40
78184;DHT22;67442;44.570;18.610;2023-04-03T15:45:35;22.00;57.40
78184;DHT22;67442;44.570;18.610;2023-04-03T15:48:03;22.00;57.40
78184;DHT22;67442;44.570;18.610;2023-04-03T15:50:30;22.00;57.50
78184;DHT22;67442;44.570;18.610;2023-04-03T15:52:57;22.00;57.60
78184;DHT22;67442;44.570;18.610;2023-04-03T15:55:24;22.00;57.60
78184;DHT22;67442;44.570;18.610;2023-04-03T15:57:52;22.00;57.60
78184;DHT22;67442;44.570;18.610;2023-04-03T16:00:19;22.00;57.60
78184;DHT22;67442;44.570;18.610;2023-04-03T16:02:46;22.10;57.70
78184;DHT22;67442;44.570;18.610;2023-04-03T16:05:16;22.10;57.70
78184;DHT22;67442;44.570;18.610;2023-04-03T16:07:43;22.10;57.70
78184;DHT22;67442;44.570;18.610;2023-04-03T16:10:11;22.10;57.80
78184;DHT22;67442;44.570;18.610;2023-04-03T16:12:38;22.10;57.80
78184;DHT22;67442;44.570;18.610;2023-04-03T16:15:04;22.10;57.80
78184;DHT22;67442;44.570;18.610;2023-04-03T16:17:31;22.10;57.80
78184;DHT22;67442;44.570;18.610;2023-04-03T16:20:02;22.10;57.80
78184;DHT22;67442;44.570;18.610;2023-04-03T16:22:30;22.10;57.80
78184;DHT22;67442;44.570;18.610;2023-04-03T16:24:56;22.10;57.80
78184;DHT22;67442;44.570;18.610;2023-04-03T16:27:26;22.10;57.80
78184;DHT22;67442;44.570;18.610;2023-04-03T16:29:59;22.10;57.80
78184;DHT22;67442;44.570;18.610;2023-04-03T16:32:26;22.10;57.80
78184;DHT22;67442;44.570;18.610;2023-04-03T16:34:54;22.10;57.80
78184;DHT22;67442;44.570;18.610;2023-04-03T16:37:20;22.10;57.80
78184;DHT22;67442;44.570;18.610;2023-04-03T16:39:46;22.10;57.90
78184;DHT22;67442;44.570;18.610;2023-04-03T16:42:13;22.10;57.90
78184;DHT22;67442;44.570;18.610;2023-04-03T16:44:40;22.10;57.90
78184;DHT22;67442;44.570;18.610;2023-04-03T16:47:06;22.10;57.90
78184;DHT22;67442;44.570;18.610;2023-04-03T16:49:34;22.10;57.90
78184;DHT22;67442;44.570;18.610;2023-04-03T16:52:04;22.10;58.00
78184;DHT22;67442;44.570;18.610;2023-04-03T16:54:34;22.10;58.00
78184;DHT22;67442;44.570;18.610;2023-04-03T16:57:01;22.10;58.00
78184;DHT22;67442;44.570;18.610;2023-04-03T16:59:27;22.10;58.10
78184;DHT22;67442;44.570;18.610;2023-04-03T17:01:54;22.10;58.10
78184;DHT22;67442;44.570;18.610;2023-04-03T17:04:20;22.10;58.10
78184;DHT22;67442;44.570;18.610;2023-04-03T17:06:47;22.10;58.10
78184;DHT22;67442;44.570;18.610;2023-04-03T17:09:13;22.10;58.10
78184;DHT22;67442;44.570;18.610;2023-04-03T17:11:41;22.10;58.10
78184;DHT22;67442;44.570;18.610;2023-04-03T17:14:07;22.10;58.10